CDT,Max TemperatureF,Mean TemperatureF,Min TemperatureF,Max Dew PointF,MeanDew PointF,Min DewpointF,Max Humidity, Mean Humidity, Min Humidity, Max Sea Level PressureIn, Mean Sea Level PressureIn, Min Sea Level PressureIn, Max VisibilityMiles, Mean VisibilityMiles, Min VisibilityMiles, Max Wind SpeedMPH, Mean Wind SpeedMPH, Max Gust SpeedMPH,PrecipitationIn, CloudCover, Events, WindDirDegrees
2013-5-1,83,70,59,58,53,49,83,55,31,30.12,30.06,29.95,10,10,4,16,10,22,0.00,1,,182
2013-5-2,66,58,47,55,50,44,92,78,61,30.22,30.14,30.10,10,9,2,20,10,24,0.70,6,Rain-Thunderstorm,33
2013-5-3,57,50,42,54,47,40,94,91,88,30.11,29.98,29.88,10,6,2,21,15,23,0.13,7,Rain,64
2013-5-4,70,61,52,56,52,49,94,80,53,30.04,29.95,29.90,10,8,3,16,9,20,0.03,5,Rain,113
2013-5-5,75,62,49,53,48,41,96,66,31,30.03,29.99,29.93,10,8,2,21,7,28,0.00,4,Rain,59
2013-5-6,75,65,55,50,43,35,79,49,24,30.04,30.00,29.96,10,10,10,15,8,23,0.00,4,,38
2013-5-7,78,62,47,47,41,33,79,45,24,30.06,30.01,29.97,10,10,7,9,3,,0.00,0,,48
2013-5-8,80,66,51,52,46,39,79,49,23,30.05,30.00,29.96,10,10,3,9,3,9,0.00,0,,206
2013-5-9,72,66,60,61,58,50,94,81,52,29.97,29.89,29.80,10,8,4,21,7,30,0.24,7,Rain,165
2013-5-10,62,54,47,61,49,45,94,87,81,30.00,29.91,29.78,10,9,3,15,11,18,0.00,8,,349
2013-5-11,60,50,41,50,38,27,92,63,32,30.09,29.97,29.88,10,10,7,30,11,40,0.00,4,,285
2013-5-12,57,46,36,31,28,25,74,50,29,30.16,30.12,30.08,10,10,10,21,12,28,0.00,1,,303
2013-5-13,68,52,37,39,32,25,76,46,23,30.19,30.11,30.00,10,10,10,13,7,18,0.00,0,,250
2013-5-14,90,72,54,58,51,39,66,48,26,29.98,29.78,29.67,10,10,10,21,14,30,0.00,0,,217
2013-5-15,84,76,65,58,49,41,64,40,24,29.85,29.79,29.68,10,10,10,26,15,37,0.00,0,Thunderstorm,279
2013-5-16,84,70,57,60,48,42,72,45,23,29.96,29.90,29.85,10,10,10,12,6,,0.00,3,Thunderstorm,115
2013-5-17,80,70,61,63,59,56,85,71,48,30.02,29.98,29.93,10,10,7,20,6,30,0.00,4,,108
2013-5-18,80,68,57,63,60,55,93,72,49,30.05,29.99,29.92,10,8,2,12,6,18,0.00,3,,113
2013-5-19,90,76,62,69,62,59,88,64,39,29.94,29.85,29.72,10,9,4,22,10,28,0.00,1,,143
2013-5-20,84,74,63,69,61,57,90,62,42,29.83,29.76,29.70,10,10,1,31,14,38,1.04,3,Rain-Thunderstorm,214
2013-5-21,81,72,63,64,61,58,87,69,46,29.72,29.69,29.66,10,10,10,22,14,29,0.00,3,Rain-Thunderstorm,218
2013-5-22,72,66,61,64,58,54,93,79,54,29.78,29.70,29.64,10,10,3,21,7,25,0.30,7,Rain,237
2013-5-23,59,54,45,56,51,40,93,80,65,30.29,30.02,29.78,10,9,1,21,12,26,0.07,6,Rain,12
2013-5-24,64,52,39,42,38,35,86,61,37,30.44,30.36,30.29,10,10,10,10,6,,0.00,0,,64
2013-5-25,56,52,48,48,41,34,87,67,51,30.41,30.33,30.26,10,10,7,13,6,,0.05,6,Rain,108
2013-5-26,61,54,46,55,48,41,94,81,62,30.28,30.21,30.09,10,8,3,16,8,22,0.95,6,Rain-Thunderstorm,106
2013-5-27,70,62,56,64,60,55,96,87,77,30.09,29.94,29.82,10,8,3,13,9,17,0.24,8,Rain-Thunderstorm,116
2013-5-28,75,69,63,69,65,61,93,85,76,29.86,29.78,29.72,10,10,2,24,11,34,0.38,6,Rain-Thunderstorm,196
2013-5-29,84,72,62,69,64,58,92,74,56,29.94,29.88,29.75,10,10,7,21,11,26,0.13,3,Rain-Thunderstorm,196
2013-5-30,83,72,62,69,65,58,94,76,59,29.91,29.86,29.75,10,9,3,30,16,38,0.72,4,Rain-Thunderstorm,179
2013-5-31,75,68,62,70,64,60,94,84,68,29.85,29.80,29.69,10,10,2,21,11,29,0.21,5,Rain-Thunderstorm,191